createdAt,value
2023-04-28T00:00:11.945Z,8.58
2023-04-28T00:03:14.274Z,8.57
2023-04-28T00:06:16.396Z,8.51
2023-04-28T00:09:18.480Z,8.42
2023-04-28T00:12:20.394Z,8.43
2023-04-28T00:15:22.403Z,8.42
2023-04-28T00:18:24.373Z,8.29
2023-04-28T00:21:28.004Z,8.33
2023-04-28T00:24:30.058Z,8.38
2023-04-28T00:27:33.464Z,8.31
2023-04-28T00:30:35.492Z,8.27
2023-04-28T00:33:37.394Z,8.26
2023-04-28T00:36:39.310Z,8.14
2023-04-28T00:39:41.783Z,8.15
2023-04-28T00:42:43.715Z,8.14
2023-04-28T00:45:45.594Z,8.10
2023-04-28T00:48:48.740Z,8.09
2023-04-28T00:51:50.826Z,8.12
2023-04-28T00:54:53.030Z,8.14
2023-04-28T00:57:57.502Z,8.00
2023-04-28T01:01:08.140Z,7.96
2023-04-28T01:04:10.485Z,8.00
2023-04-28T01:07:14.370Z,7.90
2023-04-28T01:10:16.393Z,7.81
2023-04-28T01:13:19.043Z,7.72
2023-04-28T01:16:21.521Z,7.76
2023-04-28T01:19:23.737Z,7.74
2023-04-28T01:22:27.283Z,7.76
2023-04-28T01:25:29.124Z,7.78
2023-04-28T01:28:31.720Z,7.69
2023-04-28T01:31:34.097Z,7.65
2023-04-28T01:34:36.306Z,7.63
2023-04-28T01:37:41.234Z,7.61
2023-04-28T01:40:43.290Z,7.51
2023-04-28T01:43:45.275Z,7.47
2023-04-28T01:46:47.264Z,7.38
2023-04-28T01:49:50.129Z,7.32
2023-04-28T01:52:52.012Z,7.30
2023-04-28T01:55:54.396Z,7.18
2023-04-28T01:58:56.887Z,7.16
2023-04-28T02:01:58.856Z,7.09
2023-04-28T02:05:01.949Z,7.00
2023-04-28T02:08:04.962Z,7.00
2023-04-28T02:11:07.322Z,6.81
2023-04-28T02:14:09.226Z,6.81
2023-04-28T02:17:11.179Z,6.95
2023-04-28T02:20:14.600Z,7.04
2023-04-28T02:23:16.558Z,6.98
2023-04-28T02:26:18.562Z,6.86
2023-04-28T02:29:20.552Z,6.87
2023-04-28T02:32:22.391Z,6.84
2023-04-28T02:35:26.433Z,6.83
2023-04-28T02:38:28.958Z,6.81
2023-04-28T02:41:31.725Z,6.88
2023-04-28T02:44:33.690Z,6.87
2023-04-28T02:47:35.665Z,6.90
2023-04-28T02:50:37.705Z,6.97
2023-04-28T02:53:40.179Z,6.86
2023-04-28T02:56:42.288Z,6.92
2023-04-28T02:59:44.247Z,6.82
2023-04-28T03:02:46.681Z,6.76
2023-04-28T03:05:48.574Z,6.61
2023-04-28T03:08:51.792Z,6.65
2023-04-28T03:11:53.738Z,6.71
2023-04-28T03:14:56.041Z,6.64
2023-04-28T03:17:58.031Z,6.53
2023-04-28T03:20:59.954Z,6.57
2023-04-28T03:24:04.854Z,6.39
2023-04-28T03:27:07.559Z,6.46
2023-04-28T03:30:10.491Z,6.49
2023-04-28T03:33:13.514Z,6.55
2023-04-28T03:36:16.119Z,6.57
2023-04-28T03:39:18.072Z,6.57
2023-04-28T03:42:19.991Z,6.60
2023-04-28T03:45:41.691Z,6.55
2023-04-28T03:48:46.117Z,6.53
2023-04-28T03:51:50.051Z,6.50
2023-04-28T03:54:52.330Z,6.39
2023-04-28T03:57:55.043Z,6.48
2023-04-28T04:00:57.087Z,6.44
2023-04-28T04:03:59.601Z,6.59
2023-04-28T04:07:02.586Z,6.54
2023-04-28T04:10:05.340Z,6.66
2023-04-28T04:13:09.297Z,6.68
2023-04-28T04:16:11.537Z,6.75
2023-04-28T04:19:14.017Z,6.77
2023-04-28T04:22:17.108Z,6.83
2023-04-28T04:25:19.734Z,7.05
2023-04-28T04:28:24.091Z,7.17
2023-04-28T04:31:26.182Z,7.23
2023-04-28T04:34:28.452Z,7.81
2023-04-28T04:37:30.495Z,8.16
2023-04-28T04:40:36.693Z,8.77
2023-04-28T04:43:39.207Z,9.18
2023-04-28T04:46:41.305Z,9.56
2023-04-28T04:49:44.380Z,9.95
2023-04-28T04:52:46.582Z,10.09
2023-04-28T04:55:48.743Z,10.32
2023-04-28T04:58:52.373Z,10.47
2023-04-28T05:02:17.689Z,10.68
2023-04-28T05:05:21.698Z,10.63
2023-04-28T05:08:40.694Z,10.91
2023-04-28T05:11:43.858Z,11.17
2023-04-28T05:14:46.165Z,11.27
2023-04-28T05:17:48.490Z,11.52
2023-04-28T05:20:51.127Z,11.63
2023-04-28T05:23:54.454Z,11.83
2023-04-28T05:26:59.365Z,11.50
2023-04-28T05:30:01.502Z,11.92
2023-04-28T05:33:03.994Z,11.84
2023-04-28T05:36:06.395Z,11.99
2023-04-28T05:39:13.284Z,11.95
2023-04-28T05:42:16.827Z,12.10
2023-04-28T05:45:18.714Z,12.11
2023-04-28T05:48:20.814Z,12.33
2023-04-28T05:51:22.877Z,12.19
2023-04-28T05:54:25.054Z,12.52
2023-04-28T05:57:30.541Z,12.21
2023-04-28T06:00:36.029Z,12.51
2023-04-28T06:03:38.403Z,12.35
2023-04-28T06:06:41.579Z,12.34
2023-04-28T06:09:44.362Z,12.36
2023-04-28T06:12:47.166Z,12.59
2023-04-28T06:16:08.999Z,12.72
2023-04-28T06:19:11.971Z,12.87
2023-04-28T06:22:14.239Z,12.56
2023-04-28T06:25:16.576Z,12.30
2023-04-28T06:28:21.375Z,12.06
2023-04-28T06:31:23.460Z,12.09
2023-04-28T06:34:28.903Z,11.76
2023-04-28T06:37:31.496Z,11.58
2023-04-28T06:56:56.345Z,13.38
2023-04-28T06:59:59.622Z,12.98
2023-04-28T07:03:01.739Z,12.76
2023-04-28T07:06:04.471Z,12.40
2023-04-28T07:09:06.496Z,13.12
2023-04-28T07:12:08.578Z,13.58
2023-04-28T07:15:11.078Z,12.97
2023-04-28T07:18:12.999Z,12.96
2023-04-28T07:21:14.945Z,13.33
2023-04-28T07:24:17.269Z,13.81
2023-04-28T07:27:19.348Z,13.87
2023-04-28T07:30:27.945Z,13.98
2023-04-28T07:33:30.557Z,13.90
2023-04-28T07:36:33.218Z,14.18
2023-04-28T07:39:35.393Z,13.04
2023-04-28T07:42:37.484Z,13.62
2023-04-28T07:45:40.395Z,13.68
2023-04-28T07:48:42.429Z,13.33
2023-04-28T07:51:44.347Z,13.24
2023-04-28T07:54:46.675Z,14.06
2023-04-28T07:57:49.609Z,14.22
2023-04-28T08:00:51.509Z,14.65
2023-04-28T08:03:53.750Z,14.39
2023-04-28T08:06:55.727Z,14.23
2023-04-28T08:09:58.208Z,14.42
2023-04-28T08:13:00.190Z,14.32
2023-04-28T08:16:02.243Z,13.94
2023-04-28T08:19:04.439Z,13.28
2023-04-28T08:22:07.376Z,14.24
2023-04-28T08:25:09.637Z,14.50
2023-04-28T08:28:11.516Z,13.85
2023-04-28T08:31:13.686Z,14.63
2023-04-28T08:34:16.606Z,14.57
2023-04-28T08:37:19.403Z,14.37
2023-04-28T08:40:33.153Z,14.98
2023-04-28T08:43:36.605Z,15.26
2023-04-28T08:46:42.253Z,15.39
2023-04-28T08:49:45.670Z,14.96
2023-04-28T08:52:48.371Z,15.58
2023-04-28T08:55:54.264Z,15.56
2023-04-28T08:58:56.593Z,15.41
2023-04-28T09:02:00.543Z,14.93
2023-04-28T09:05:03.438Z,14.87
2023-04-28T09:08:05.877Z,15.37
2023-04-28T09:11:10.777Z,15.43
2023-04-28T09:14:13.154Z,15.18
2023-04-28T09:17:16.597Z,15.57
2023-04-28T09:20:38.378Z,15.23
2023-04-28T09:24:00.258Z,15.76
2023-04-28T09:27:28.045Z,15.96
2023-04-28T09:30:41.019Z,15.73
2023-04-28T09:34:00.670Z,15.88
2023-04-28T09:37:15.524Z,15.75
2023-04-28T09:44:32.822Z,15.99
2023-04-28T09:47:37.665Z,16.23
2023-04-28T09:50:40.218Z,15.65
2023-04-28T09:53:42.424Z,16.10
2023-04-28T09:56:47.170Z,16.31
2023-04-28T09:59:53.864Z,16.51
2023-04-28T10:02:57.224Z,15.95
2023-04-28T10:05:59.487Z,16.40
2023-04-28T10:09:02.089Z,16.35
2023-04-28T10:12:05.355Z,16.37
2023-04-28T10:15:09.654Z,16.31
2023-04-28T10:18:15.102Z,16.03
2023-04-28T10:21:20.034Z,15.96
2023-04-28T10:24:29.572Z,16.27
2023-04-28T10:27:32.087Z,16.60
2023-04-28T10:30:35.277Z,16.97
2023-04-28T10:33:37.882Z,16.34
2023-04-28T10:36:52.482Z,16.56
2023-04-28T10:40:32.856Z,17.08
2023-04-28T10:43:40.119Z,17.16
2023-04-28T10:47:04.379Z,17.07
2023-04-28T10:50:11.350Z,17.11
2023-04-28T10:53:13.411Z,16.70
2023-04-28T10:56:21.665Z,17.00
2023-04-28T10:59:28.396Z,16.99
2023-04-28T11:02:41.081Z,16.68
2023-04-28T11:06:24.935Z,16.74
2023-04-28T11:09:32.593Z,16.54
2023-04-28T11:12:34.505Z,16.53
2023-04-28T11:15:36.456Z,16.74
2023-04-28T11:18:59.347Z,16.99
2023-04-28T11:22:09.949Z,17.12
2023-04-28T11:25:11.829Z,17.00
2023-04-28T11:28:13.769Z,16.96
2023-04-28T11:31:19.423Z,16.78
2023-04-28T11:34:22.698Z,16.74
2023-04-28T11:37:24.825Z,16.72
2023-04-28T11:40:26.884Z,16.95
2023-04-28T11:43:46.085Z,16.92
2023-04-28T11:47:03.260Z,16.27
2023-04-28T11:50:06.168Z,16.92
2023-04-28T11:53:08.134Z,17.26
2023-04-28T11:56:10.362Z,16.54
2023-04-28T11:59:13.784Z,16.76
2023-04-28T12:02:17.141Z,16.99
2023-04-28T12:32:31.887Z,16.83
2023-04-28T12:36:38.370Z,17.04
2023-04-28T12:45:16.284Z,16.90
2023-04-28T12:48:18.522Z,16.74
2023-04-28T12:51:20.466Z,17.36
2023-04-28T12:54:22.661Z,17.58
2023-04-28T12:57:24.596Z,17.60
2023-04-28T13:00:27.095Z,17.06
2023-04-28T13:03:29.584Z,17.16
2023-04-28T13:06:32.694Z,16.49
2023-04-28T13:09:36.326Z,16.42
2023-04-28T13:12:39.271Z,16.48
2023-04-28T13:15:41.157Z,16.83
2023-04-28T13:18:43.334Z,17.56
2023-04-28T13:21:47.123Z,17.02
2023-04-28T13:24:49.291Z,17.22
2023-04-28T13:27:52.007Z,17.58
2023-04-28T13:30:53.918Z,17.51
2023-04-28T13:33:56.167Z,17.48
2023-04-28T13:36:58.034Z,17.62
2023-04-28T13:39:59.950Z,17.16
2023-04-28T13:43:01.991Z,16.47
2023-04-28T13:46:08.453Z,17.16
2023-04-28T13:49:10.745Z,17.27
2023-04-28T13:52:14.042Z,17.33
2023-04-28T13:55:16.256Z,17.10
2023-04-28T13:58:27.830Z,17.39
2023-04-28T14:01:30.045Z,17.41
2023-04-28T14:04:32.298Z,17.58
2023-04-28T14:07:34.441Z,17.48
2023-04-28T14:10:36.585Z,17.20
2023-04-28T14:13:38.610Z,17.22
2023-04-28T14:16:40.568Z,17.30
2023-04-28T14:19:42.570Z,17.26
2023-04-28T14:23:24.340Z,17.45
2023-04-28T14:27:25.999Z,17.39
2023-04-28T14:30:47.856Z,16.80
2023-04-28T14:33:50.342Z,17.03
2023-04-28T14:36:52.926Z,16.90
2023-04-28T14:39:55.032Z,16.83
2023-04-28T14:42:57.625Z,16.72
2023-04-28T14:45:59.929Z,17.23
2023-04-28T14:49:02.819Z,17.28
2023-04-28T14:52:04.873Z,16.97
2023-04-28T14:55:07.087Z,16.87
2023-04-28T14:58:08.968Z,16.86
2023-04-28T15:01:11.230Z,16.66
2023-04-28T15:04:13.427Z,16.71
2023-04-28T15:07:15.479Z,17.10
2023-04-28T15:10:17.893Z,16.85
2023-04-28T15:13:19.934Z,17.13
2023-04-28T15:16:21.869Z,17.02
2023-04-28T15:19:24.267Z,16.70
2023-04-28T15:22:26.272Z,16.38
2023-04-28T15:25:28.336Z,16.63
2023-04-28T15:28:30.404Z,16.56
2023-04-28T15:31:33.012Z,16.55
2023-04-28T15:34:35.378Z,16.50
2023-04-28T15:37:47.490Z,16.36
2023-04-28T15:40:49.910Z,16.16
2023-04-28T15:43:52.274Z,16.31
2023-04-28T15:46:54.362Z,16.27
2023-04-28T15:49:59.151Z,16.29
2023-04-28T15:53:08.128Z,15.63
2023-04-28T15:56:10.994Z,15.76
2023-04-28T15:59:16.082Z,15.61
2023-04-28T16:02:18.537Z,15.71
2023-04-28T16:05:20.728Z,15.48
2023-04-28T16:08:25.979Z,15.59
2023-04-28T16:11:29.767Z,15.42
2023-04-28T16:14:32.841Z,15.39
2023-04-28T16:17:35.995Z,15.21
2023-04-28T16:20:38.691Z,15.19
2023-04-28T16:23:40.746Z,15.09
2023-04-28T16:26:42.652Z,15.11
2023-04-28T16:29:45.883Z,15.08
2023-04-28T16:32:47.971Z,14.99
2023-04-28T16:35:58.290Z,14.85
2023-04-28T16:39:00.209Z,14.71
2023-04-28T16:42:05.401Z,14.78
2023-04-28T16:45:08.243Z,14.62
2023-04-28T16:48:10.251Z,14.58
2023-04-28T16:51:12.151Z,14.50
2023-04-28T16:54:14.139Z,14.28
2023-04-28T16:57:16.221Z,14.31
2023-04-28T17:00:20.148Z,14.27
2023-04-28T17:03:22.248Z,14.22
2023-04-28T17:06:24.526Z,14.03
2023-04-28T17:09:27.681Z,14.01
2023-04-28T17:12:29.722Z,13.95
2023-04-28T17:15:31.703Z,13.81
2023-04-28T17:18:33.861Z,13.57
2023-04-28T17:21:35.780Z,13.43
2023-04-28T17:24:37.695Z,13.34
2023-04-28T17:27:39.749Z,13.27
2023-04-28T17:30:43.878Z,13.06
2023-04-28T17:33:51.731Z,13.01
2023-04-28T17:36:53.637Z,12.86
2023-04-28T17:39:55.674Z,12.78
2023-04-28T17:42:58.221Z,12.80
2023-04-28T17:46:00.174Z,12.67
2023-04-28T17:49:01.992Z,12.70
2023-04-28T17:52:04.156Z,12.61
2023-04-28T17:55:06.464Z,12.56
2023-04-28T17:58:08.422Z,12.54
2023-04-28T18:01:10.602Z,12.47
2023-04-28T18:04:12.682Z,12.41
2023-04-28T18:07:14.732Z,12.40
2023-04-28T18:10:17.125Z,12.32
2023-04-28T18:13:19.144Z,12.19
2023-04-28T18:16:21.124Z,12.11
2023-04-28T18:19:24.068Z,11.99
2023-04-28T18:22:26.457Z,11.87
2023-04-28T18:25:28.510Z,11.85
2023-04-28T18:28:30.589Z,11.83
2023-04-28T18:31:33.697Z,11.75
2023-04-28T18:34:35.685Z,11.77
2023-04-28T18:37:37.852Z,11.76
2023-04-28T18:40:40.845Z,11.75
2023-04-28T18:43:43.398Z,11.71
2023-04-28T18:47:05.191Z,11.71
2023-04-28T18:50:27.285Z,11.74
2023-04-28T18:53:49.078Z,11.72
2023-04-28T18:57:11.666Z,11.56
2023-04-28T19:00:35.691Z,11.64
2023-04-28T19:03:46.387Z,11.67
2023-04-28T19:06:49.336Z,11.68
2023-04-28T19:09:51.920Z,11.68
2023-04-28T19:12:53.977Z,11.79
2023-04-28T19:15:56.389Z,11.83
2023-04-28T19:18:58.558Z,11.84
2023-04-28T19:22:01.659Z,11.86
2023-04-28T19:25:05.373Z,11.81
2023-04-28T19:28:08.360Z,11.71
2023-04-28T19:31:11.163Z,11.62
2023-04-28T19:34:13.867Z,11.58
2023-04-28T19:37:16.434Z,11.57
2023-04-28T19:40:18.757Z,11.44
2023-04-28T19:43:21.602Z,11.50
2023-04-28T19:46:23.680Z,11.45
2023-04-28T19:49:26.179Z,11.36
2023-04-28T19:52:28.367Z,11.34
2023-04-28T19:55:31.097Z,11.30
2023-04-28T19:58:34.303Z,11.46
2023-04-28T20:01:41.702Z,11.49
2023-04-28T20:04:44.073Z,11.43
2023-04-28T20:07:47.715Z,11.41
2023-04-28T20:10:50.141Z,11.34
2023-04-28T20:13:52.027Z,11.41
2023-04-28T20:16:54.427Z,11.33
2023-04-28T20:19:56.832Z,11.31
2023-04-28T20:22:59.076Z,11.29
2023-04-28T20:26:01.171Z,11.28
2023-04-28T20:29:03.362Z,11.28
2023-04-28T20:32:05.657Z,11.17
2023-04-28T20:35:08.089Z,11.30
2023-04-28T20:38:10.110Z,11.23
2023-04-28T20:41:12.494Z,11.21
2023-04-28T20:44:15.332Z,11.20
2023-04-28T20:47:17.896Z,11.39
2023-04-28T20:50:19.844Z,11.37
2023-04-28T20:53:22.316Z,11.35
2023-04-28T20:56:24.272Z,11.45
2023-04-28T20:59:26.354Z,11.52
2023-04-28T21:02:28.477Z,11.69
2023-04-28T21:05:30.669Z,11.59
2023-04-28T21:08:32.697Z,11.61
2023-04-28T21:11:34.578Z,11.67
2023-04-28T21:14:39.732Z,11.47
2023-04-28T21:17:41.595Z,11.50
2023-04-28T21:20:43.610Z,11.74
2023-04-28T21:23:45.704Z,11.75
2023-04-28T21:26:47.670Z,11.71
2023-04-28T21:29:49.980Z,11.77
2023-04-28T21:32:52.854Z,11.81
2023-04-28T21:35:55.304Z,11.80
2023-04-28T21:38:57.258Z,11.88
2023-04-28T21:41:59.433Z,11.90
2023-04-28T21:45:01.881Z,11.95
2023-04-28T21:48:06.353Z,11.98
2023-04-28T21:51:08.347Z,11.96
2023-04-28T21:54:10.963Z,11.90
2023-04-28T21:57:15.881Z,11.93
2023-04-28T22:00:19.214Z,11.96
2023-04-28T22:03:21.404Z,11.91
2023-04-28T22:06:23.760Z,11.95
2023-04-28T22:09:27.258Z,11.85
2023-04-28T22:12:29.370Z,11.79
2023-04-28T22:15:31.379Z,11.53
2023-04-28T22:18:33.337Z,11.53
2023-04-28T22:21:35.245Z,11.51
2023-04-28T22:24:37.191Z,11.49
2023-04-28T22:27:40.574Z,11.32
2023-04-28T22:30:44.612Z,11.34
2023-04-28T22:33:46.848Z,11.38
2023-04-28T22:36:48.754Z,11.27
2023-04-28T22:39:50.873Z,11.34
2023-04-28T22:42:52.946Z,11.38
2023-04-28T22:45:57.185Z,11.07
2023-04-28T22:48:59.170Z,11.10
2023-04-28T22:52:01.678Z,11.03
2023-04-28T22:55:04.672Z,11.11
2023-04-28T22:58:07.135Z,10.95
2023-04-28T23:01:09.364Z,10.91
2023-04-28T23:04:11.994Z,10.83
2023-04-28T23:07:14.260Z,10.85
2023-04-28T23:10:18.384Z,10.79
2023-04-28T23:13:30.428Z,10.68
2023-04-28T23:16:32.477Z,10.75
2023-04-28T23:19:39.274Z,10.46
2023-04-28T23:22:41.965Z,10.37
2023-04-28T23:25:44.100Z,10.34
2023-04-28T23:28:46.687Z,10.44
2023-04-28T23:31:52.587Z,10.37
2023-04-28T23:34:54.753Z,10.36
2023-04-28T23:37:56.567Z,10.20
2023-04-28T23:40:58.431Z,10.22
2023-04-28T23:44:00.429Z,10.27
2023-04-28T23:47:02.449Z,10.26
2023-04-28T23:50:05.074Z,10.56
2023-04-28T23:53:07.631Z,10.62
2023-04-28T23:56:09.799Z,10.57
2023-04-28T23:59:11.762Z,10.69
